• Join FlightAware (Why Join?)
  • Login
  • US Flag 
11:01AM EDT


 

Airport Tracker/Info


-or-


 

Live Flight TrackerFlight Track Log ✈ N8421U ✈ 23-Feb-2014 ✈ 6B9 - KART

Flight Track Log - Related Links

Times and Time Zones

All times are in EST time to prevent confusion due to time zone crossing. See the N8421U flight status page for this flight to view local times or setup timezone preferences in your user account.

Time Position Orientation Groundspeed Altitude Reporting Facility
EST Latitude Longitude Course Direction KTS MPH feet Rate Location/Type
02:04PM 42.9339 -76.0728 North 94 108 2,900  Level Boston Center
02:04PM 42.9425 -76.0725 North 94 108 3,000 180 Climbing Boston Center
02:05PM 42.9672 -76.0775 352° North 97 112 3,200 120 Climbing Boston Center
02:06PM 42.9756 -76.0767 North 97 112 3,200  Level Boston Center
02:06PM 42.9992 -76.0786 357° North 102 117 3,200  Level Boston Center
02:07PM 43.0039 -76.0794 353° North 99 114 3,200  Level Boston Center
02:08PM 43.0264 -76.0814 356° North 95 109 3,200  Level Boston Center
02:08PM 43.0297 -76.0817 357° North 98 113 3,200  Level Boston Center
02:09PM 43.0514 -76.0864 351° North 89 102 3,200  Level Boston Center
02:09PM 43.0544 -76.0867 356° North 94 108 3,200  Level Boston Center
02:09PM 43.0753 -76.0969 340° North 96 110 3,200  Level Boston Center
02:10PM 43.0803 -76.0969 360° North 93 107 3,200 60 Level Boston Center
02:10PM 43.1025 -76.0997 355° North 102 117 3,300 60 Climbing Boston Center
02:11PM 43.1069 -76.0972 22° Northeast 97 112 3,300  Level Boston Center
02:11PM 43.1297 -76.0906 12° North 101 116 3,300 -120 Level Boston Center
02:12PM 43.1353 -76.0869 25° Northeast 102 117 3,200 -120 Descending Boston Center
02:12PM 43.1572 -76.0672 33° Northeast 114 131 3,200  Level Boston Center
02:13PM 43.1653 -76.0578 41° Northeast 110 127 3,200  Level Boston Center
02:14PM 43.1811 -76.0397 40° Northeast 113 130 3,200  Level Boston Center
02:14PM 43.1900 -76.0319 33° Northeast 112 129 3,200 -240 Level Boston Center
02:15PM 43.2050 -76.0119 44° Northeast 114 131 3,000 -120 Descending Boston Center
02:15PM 43.2128 -76.0022 42° Northeast 113 130 3,100  Climbing Boston Center
02:16PM 43.2253 -75.9803 52° Northeast 113 130 3,000 -120 Descending Boston Center
02:16PM 43.2350 -75.9703 37° Northeast 114 131 3,000 60 Level Boston Center
02:16PM 43.2503 -75.9589 28° Northeast 108 124 3,100  Climbing Boston Center
02:17PM 43.2603 -75.9481 38° Northeast 111 128 3,000  Descending Boston Center
02:17PM 43.2753 -75.9375 27° Northeast 106 122 3,100 60 Climbing Boston Center
02:18PM 43.2856 -75.9275 35° Northeast 108 124 3,100 -120 Level Boston Center
02:18PM 43.2992 -75.9217 17° North 108 124 3,000 -300 Descending Boston Center
02:19PM 43.3108 -75.9078 41° Northeast 107 123 2,800 -420 Descending Boston Center
02:19PM 43.3258 -75.9036 11° North 112 129 2,600 -240 Descending Boston Center
02:20PM 43.3325 -75.9131 314° West 107 123 2,600  Level Boston Center
02:20PM 43.3208 -75.9081 163° South 91 105 2,600  Level Boston Center
02:21PM 43.3303 -75.8956 44° Northeast 102 117 2,600 -240 Level Boston Center
02:21PM 43.3478 -75.8872 19° North 105 121 2,400 -300 Descending Boston Center
02:22PM 43.3561 -75.8772 41° Northeast 106 122 2,300 -420 Descending Boston Center
02:23PM 43.3800 -75.8467 43° Northeast 102 117 1,800 -540 Descending Boston Center
02:24PM 43.3917 -75.8539 336° Northwest 98 113 1,500 -840 Descending Boston Center
02:24PM 43.3958 -75.8703 289° West 102 117 1,000 -480 Descending Boston Center
02:25PM 43.3947 -75.8872 265° West 96 110 1,000 360 Level Boston Center
02:25PM 43.3883 -75.8939 217° Southwest 102 117 1,400 480 Climbing Boston Center
02:26PM 43.3972 -75.8850 36° Northeast 94 108 1,500 240 Climbing Boston Center
02:26PM 43.4086 -75.8825 North 101 116 1,700 360 Climbing Boston Center
02:27PM 43.4200 -75.8892 337° Northwest 79 91 1,900 360 Climbing Boston Center
02:27PM 43.4292 -75.8933 342° North 87 100 2,100 360 Climbing Boston Center
02:28PM 43.4411 -75.9044 326° Northwest 83 96 2,300 240 Climbing Boston Center
02:28PM 43.4500 -75.9075 346° North 84 97 2,400 300 Climbing Boston Center
02:29PM 43.4628 -75.9144 338° Northwest 87 100 2,600 360 Climbing Boston Center
02:29PM 43.4744 -75.9147 359° North 85 98 2,800 300 Climbing Boston Center
02:30PM 43.4917 -75.9206 346° North 95 109 3,000 180 Climbing Boston Center
02:30PM 43.5008 -75.9228 350° North 90 104 3,000 60 Level Boston Center
02:31PM 43.5172 -75.9344 333° Northwest 100 115 3,100 60 Climbing Boston Center
02:31PM 43.5267 -75.9356 355° North 95 109 3,100 60 Level Boston Center
02:32PM 43.5417 -75.9539 318° Northwest 97 112 3,200 -180 Climbing Boston Center
02:33PM 43.5547 -75.9786 306° West 90 104 2,900 -600 Descending Boston Center
02:34PM 43.5536 -76.0106 267° West 88 101 2,000 -840 Descending Boston Center
02:35PM 43.5592 -76.0417 284° West 89 102 1,400 -300 Descending Boston Center
02:36PM 43.5753 -76.0350 17° North 94 108 1,500 240 Climbing Boston Center
02:37PM 43.5517 -76.0364 182° South 91 105 2,000 480 Climbing Boston Center
02:38PM 43.5292 -76.0175 149° Southeast 92 106 2,500 480 Climbing Boston Center